createdAt,value
2019-02-20T00:00:57.479Z,1023.87
2019-02-20T00:01:56.953Z,1023.84
2019-02-20T00:02:56.772Z,1023.87
2019-02-20T00:03:56.960Z,1023.89
2019-02-20T00:04:57.150Z,1023.88
2019-02-20T00:05:56.974Z,1023.87
2019-02-20T00:06:56.986Z,1023.86
2019-02-20T00:07:56.934Z,1023.86
2019-02-20T00:08:57.040Z,1023.83
2019-02-20T00:09:57.004Z,1023.83
2019-02-20T00:10:57.006Z,1023.84
2019-02-20T00:11:57.116Z,1023.88
2019-02-20T00:12:57.139Z,1023.88
2019-02-20T00:13:56.703Z,1023.89
2019-02-20T00:14:56.920Z,1023.92
2019-02-20T00:15:57.565Z,1023.91
2019-02-20T00:16:57.675Z,1023.93
2019-02-20T00:17:57.160Z,1023.92
2019-02-20T00:18:56.717Z,1023.95
2019-02-20T00:19:56.736Z,1023.9
2019-02-20T00:20:57.079Z,1023.9
2019-02-20T00:21:56.700Z,1023.94
2019-02-20T00:22:56.757Z,1023.91
2019-02-20T00:23:58.526Z,1023.92
2019-02-20T00:24:57.209Z,1023.94
2019-02-20T00:25:57.105Z,1023.96
2019-02-20T00:26:56.720Z,1023.98
2019-02-20T00:27:56.983Z,1023.94
2019-02-20T00:28:56.812Z,1023.96
2019-02-20T00:29:56.781Z,1023.97
2019-02-20T00:30:57.043Z,1023.98
2019-02-20T00:31:56.968Z,1023.97
2019-02-20T00:32:56.725Z,1023.94
2019-02-20T00:33:56.957Z,1023.99
2019-02-20T00:34:56.961Z,1023.99
2019-02-20T00:35:56.966Z,1024.01
2019-02-20T00:36:56.641Z,1024.01
2019-02-20T00:37:57.183Z,1024.08
2019-02-20T00:38:57.192Z,1024.06
2019-02-20T00:39:56.747Z,1024.05
2019-02-20T00:40:57.463Z,1024.06
2019-02-20T00:41:56.735Z,1024.05
2019-02-20T00:42:56.688Z,1024.05
2019-02-20T00:43:56.917Z,1024.06
2019-02-20T00:44:56.802Z,1024.04
2019-02-20T00:45:57.579Z,1024.02
2019-02-20T00:46:56.942Z,1024.06
2019-02-20T00:47:57.355Z,1023.99
2019-02-20T00:48:57.054Z,1024
2019-02-20T00:49:57.060Z,1024.03
2019-02-20T00:50:57.516Z,1024
2019-02-20T00:51:56.883Z,1023.99
2019-02-20T00:52:56.788Z,1023.97
2019-02-20T00:53:56.604Z,1024.02
2019-02-20T00:54:56.634Z,1023.98
2019-02-20T00:55:56.930Z,1023.99
2019-02-20T00:56:56.722Z,1024.01
2019-02-20T00:57:56.608Z,1023.99
2019-02-20T00:58:57.533Z,1024.01
2019-02-20T00:59:57.730Z,1024.03
2019-02-20T01:00:56.732Z,1024.04
2019-02-20T01:01:56.647Z,1024.07
2019-02-20T01:02:56.949Z,1024.03
2019-02-20T01:03:56.600Z,1024.04
2019-02-20T01:04:56.630Z,1024.04
2019-02-20T01:05:57.561Z,1024.03
2019-02-20T01:06:56.734Z,1024.05
2019-02-20T01:07:57.083Z,1024.06
2019-02-20T01:08:56.629Z,1024.04
2019-02-20T01:09:56.733Z,1024.04
2019-02-20T01:10:56.761Z,1024.04
2019-02-20T01:11:57.218Z,1024.01
2019-02-20T01:12:56.637Z,1024.04
2019-02-20T01:13:56.808Z,1024.02
2019-02-20T01:14:56.568Z,1024.01
2019-02-20T01:15:56.734Z,1023.99
2019-02-20T01:16:56.758Z,1024.02
2019-02-20T01:17:57.142Z,1024.02
2019-02-20T01:18:58.458Z,1024.07
2019-02-20T01:19:56.587Z,1024.12
2019-02-20T01:20:57.529Z,1024.12
2019-02-20T01:21:57.589Z,1024.14
2019-02-20T01:23:00.432Z,1024.14
2019-02-20T01:23:57.283Z,1024.14
2019-02-20T01:24:56.601Z,1024.13
2019-02-20T01:25:56.550Z,1024.12
2019-02-20T01:26:56.670Z,1024.11
2019-02-20T01:27:58.284Z,1024.14
2019-02-20T01:28:57.010Z,1024.09
2019-02-20T01:29:56.957Z,1024.11
2019-02-20T01:30:56.602Z,1024.13
2019-02-20T01:31:57.131Z,1024.08
2019-02-20T01:32:56.841Z,1024.08
2019-02-20T01:33:56.687Z,1024.08
2019-02-20T01:34:56.631Z,1024.08
2019-02-20T01:35:57.692Z,1024.08
2019-02-20T01:36:56.885Z,1024.09
2019-02-20T01:37:56.557Z,1024.1
2019-02-20T01:38:56.666Z,1024.12
2019-02-20T01:39:56.927Z,1024.09
2019-02-20T01:40:56.681Z,1024.1
2019-02-20T01:41:57.194Z,1024.09
2019-02-20T01:42:57.410Z,1024.06
2019-02-20T01:43:58.026Z,1024.1
2019-02-20T01:44:56.815Z,1024.07
2019-02-20T01:45:56.589Z,1024.09
2019-02-20T01:46:58.679Z,1024.12
2019-02-20T01:47:56.892Z,1024.11
2019-02-20T01:48:56.692Z,1024.07
2019-02-20T01:49:56.634Z,1024.07
2019-02-20T01:50:56.556Z,1024.08
2019-02-20T01:51:57.982Z,1024.03
2019-02-20T01:52:56.620Z,1024.06
2019-02-20T01:53:56.590Z,1024.06
2019-02-20T01:54:56.890Z,1024.03
2019-02-20T01:55:56.587Z,1024.03
2019-02-20T01:56:57.358Z,1024.06
2019-02-20T01:57:56.802Z,1024.05
2019-02-20T01:58:56.630Z,1024.03
2019-02-20T01:59:56.804Z,1024.02
2019-02-20T02:00:56.668Z,1023.99
2019-02-20T02:01:57.131Z,1024
2019-02-20T02:02:56.939Z,1024.04
2019-02-20T02:03:56.831Z,1024.02
2019-02-20T02:04:57.460Z,1024.02
2019-02-20T02:05:56.557Z,1023.96
2019-02-20T02:06:56.874Z,1023.93
2019-02-20T02:07:56.633Z,1023.95
2019-02-20T02:08:56.965Z,1023.98
2019-02-20T02:09:56.869Z,1023.94
2019-02-20T02:10:56.622Z,1024
2019-02-20T02:11:56.568Z,1023.97
2019-02-20T02:12:58.349Z,1023.99
2019-02-20T02:13:56.891Z,1023.94
2019-02-20T02:14:56.539Z,1023.99
2019-02-20T02:15:57.727Z,1023.98
2019-02-20T02:16:56.485Z,1023.99
2019-02-20T02:17:56.647Z,1024.01
2019-02-20T02:18:56.590Z,1023.98
2019-02-20T02:19:57.532Z,1023.98
2019-02-20T02:20:56.628Z,1023.99
2019-02-20T02:21:56.846Z,1023.95
2019-02-20T02:22:57.091Z,1023.94
2019-02-20T02:23:58.374Z,1023.94
2019-02-20T02:24:56.593Z,1023.94
2019-02-20T02:25:58.337Z,1023.9
2019-02-20T02:26:57.437Z,1023.88
2019-02-20T02:27:56.508Z,1023.89
2019-02-20T02:28:56.790Z,1023.88
2019-02-20T02:29:57.215Z,1023.9
2019-02-20T02:30:56.655Z,1023.89
2019-02-20T02:31:56.816Z,1023.91
2019-02-20T02:32:57.490Z,1023.93
2019-02-20T02:33:58.326Z,1023.93
2019-02-20T02:34:56.556Z,1023.91
2019-02-20T02:35:56.936Z,1023.93
2019-02-20T02:36:56.532Z,1023.95
2019-02-20T02:37:56.972Z,1023.96
2019-02-20T02:38:56.837Z,1023.98
2019-02-20T02:39:56.761Z,1024.01
2019-02-20T02:40:56.535Z,1023.98
2019-02-20T02:41:56.497Z,1023.99
2019-02-20T02:42:56.585Z,1023.97
2019-02-20T02:43:57.119Z,1023.94
2019-02-20T02:44:56.462Z,1023.93
2019-02-20T02:45:56.902Z,1023.92
2019-02-20T02:46:56.909Z,1023.91
2019-02-20T02:47:56.809Z,1023.89
2019-02-20T02:48:58.335Z,1023.95
2019-02-20T02:49:56.826Z,1023.92
2019-02-20T02:50:56.470Z,1023.93
2019-02-20T02:51:56.483Z,1023.92
2019-02-20T02:52:56.743Z,1023.91
2019-02-20T02:53:56.485Z,1023.9
2019-02-20T02:54:58.323Z,1023.9
2019-02-20T02:55:56.417Z,1023.89
2019-02-20T02:56:56.858Z,1023.9
2019-02-20T02:57:56.878Z,1023.84
2019-02-20T02:58:58.277Z,1023.88
2019-02-20T02:59:56.498Z,1023.87
2019-02-20T03:00:56.431Z,1023.9
2019-02-20T03:01:58.298Z,1023.86
2019-02-20T03:02:56.709Z,1023.88
2019-02-20T03:03:56.418Z,1023.87
2019-02-20T03:04:56.835Z,1023.9
2019-02-20T03:05:56.544Z,1023.88
2019-02-20T03:06:56.684Z,1023.88
2019-02-20T03:07:56.506Z,1023.85
2019-02-20T03:08:57.070Z,1023.93
2019-02-20T03:09:56.663Z,1023.87
2019-02-20T03:10:57.383Z,1023.87
2019-02-20T03:11:56.774Z,1023.85
2019-02-20T03:12:56.642Z,1023.84
2019-02-20T03:13:56.386Z,1023.87
2019-02-20T03:14:56.463Z,1023.84
2019-02-20T03:15:56.694Z,1023.85
2019-02-20T03:16:56.606Z,1023.86
2019-02-20T03:17:57.004Z,1023.85
2019-02-20T03:18:56.829Z,1023.85
2019-02-20T03:19:56.531Z,1023.89
2019-02-20T03:20:58.266Z,1023.86
2019-02-20T03:21:56.560Z,1023.86
2019-02-20T03:22:56.414Z,1023.86
2019-02-20T03:23:56.988Z,1023.83
2019-02-20T03:24:58.253Z,1023.86
2019-02-20T03:25:56.467Z,1023.84
2019-02-20T03:26:56.723Z,1023.85
2019-02-20T03:27:56.473Z,1023.86
2019-02-20T03:28:56.478Z,1023.86
2019-02-20T03:29:56.548Z,1023.76
2019-02-20T03:30:56.482Z,1023.82
2019-02-20T03:31:56.518Z,1023.79
2019-02-20T03:32:58.040Z,1023.8
2019-02-20T03:33:56.774Z,1023.79
2019-02-20T03:34:56.517Z,1023.81
2019-02-20T03:35:56.518Z,1023.79
2019-02-20T03:36:56.495Z,1023.79
2019-02-20T03:37:56.423Z,1023.79
2019-02-20T03:38:56.597Z,1023.79
2019-02-20T03:39:56.473Z,1023.81
2019-02-20T03:40:56.970Z,1023.82
2019-02-20T03:41:56.532Z,1023.79
2019-02-20T03:42:58.297Z,1023.87
2019-02-20T03:43:56.218Z,1023.85
2019-02-20T03:44:56.195Z,1023.9
2019-02-20T03:45:56.204Z,1023.9
2019-02-20T03:46:56.210Z,1023.89
2019-02-20T03:47:56.192Z,1023.91
2019-02-20T03:48:56.424Z,1023.9
2019-02-20T03:49:56.410Z,1023.91
2019-02-20T03:50:56.391Z,1023.92
2019-02-20T03:51:57.047Z,1023.91
2019-02-20T03:52:56.502Z,1023.99
2019-02-20T03:53:56.752Z,1024
2019-02-20T03:54:56.961Z,1024
2019-02-20T03:55:58.189Z,1024.01
2019-02-20T03:56:56.373Z,1024.01
2019-02-20T03:57:56.660Z,1024
2019-02-20T03:58:56.892Z,1024.01
2019-02-20T03:59:56.578Z,1024.01
2019-02-20T04:00:56.698Z,1023.99
2019-02-20T04:01:56.441Z,1023.99
2019-02-20T04:02:56.417Z,1024.01
2019-02-20T04:03:56.707Z,1024
2019-02-20T04:04:56.704Z,1024.04
2019-02-20T04:05:56.941Z,1023.98
2019-02-20T04:06:56.613Z,1024.01
2019-02-20T04:07:56.399Z,1024.01
2019-02-20T04:08:56.528Z,1024.01
2019-02-20T04:09:56.422Z,1023.99
2019-02-20T04:10:56.475Z,1024.03
2019-02-20T04:11:56.352Z,1024.04
2019-02-20T04:12:56.633Z,1024.07
2019-02-20T04:13:56.458Z,1024.03
2019-02-20T04:14:56.419Z,1024.04
2019-02-20T04:15:56.431Z,1024.05
2019-02-20T04:16:57.358Z,1024.08
2019-02-20T04:17:57.006Z,1024.05
2019-02-20T04:18:56.746Z,1024.11
2019-02-20T04:19:56.320Z,1024.11
2019-02-20T04:20:56.364Z,1024.11
2019-02-20T04:21:56.725Z,1024.14
2019-02-20T04:22:57.360Z,1024.13
2019-02-20T04:24:03.067Z,1024.13
2019-02-20T04:24:56.639Z,1024.15
2019-02-20T04:25:58.190Z,1024.14
2019-02-20T04:26:56.316Z,1024.17
2019-02-20T04:27:56.296Z,1024.18
2019-02-20T04:28:56.677Z,1024.21
2019-02-20T04:29:56.512Z,1024.19
2019-02-20T04:30:56.567Z,1024.18
2019-02-20T04:31:56.691Z,1024.17
2019-02-20T04:32:58.658Z,1024.16
2019-02-20T04:33:56.329Z,1024.17
2019-02-20T04:34:56.335Z,1024.19
2019-02-20T04:35:56.608Z,1024.17
2019-02-20T04:36:56.512Z,1024.15
2019-02-20T04:37:56.138Z,1024.2
2019-02-20T04:38:56.326Z,1024.19
2019-02-20T04:39:56.459Z,1024.2
2019-02-20T04:40:56.300Z,1024.23
2019-02-20T04:41:56.659Z,1024.18
2019-02-20T04:42:58.657Z,1024.22
2019-02-20T04:43:56.294Z,1024.22
2019-02-20T04:44:56.662Z,1024.16
2019-02-20T04:45:56.875Z,1024.2
2019-02-20T04:46:56.591Z,1024.17
2019-02-20T04:47:56.478Z,1024.17
2019-02-20T04:48:57.072Z,1024.14
2019-02-20T04:49:56.251Z,1024.16
2019-02-20T04:50:56.606Z,1024.16
2019-02-20T04:51:57.125Z,1024.18
2019-02-20T04:52:56.716Z,1024.2
2019-02-20T04:53:56.436Z,1024.21
2019-02-20T04:54:56.410Z,1024.2
2019-02-20T04:55:56.545Z,1024.2
2019-02-20T04:56:56.378Z,1024.23
2019-02-20T04:57:56.327Z,1024.2
2019-02-20T04:58:56.671Z,1024.21
2019-02-20T04:59:56.570Z,1024.23
2019-02-20T05:00:57.087Z,1024.21
2019-02-20T05:01:58.112Z,1024.22
2019-02-20T05:02:56.590Z,1024.2
2019-02-20T05:03:56.596Z,1024.18
2019-02-20T05:04:57.809Z,1024.2
2019-02-20T05:05:56.414Z,1024.24
2019-02-20T05:06:56.727Z,1024.24
2019-02-20T05:07:56.478Z,1024.24
2019-02-20T05:08:57.757Z,1024.22
2019-02-20T05:09:56.480Z,1024.24
2019-02-20T05:10:56.398Z,1024.2
2019-02-20T05:11:56.439Z,1024.18
2019-02-20T05:12:56.365Z,1024.17
2019-02-20T05:13:56.230Z,1024.16
2019-02-20T05:14:56.236Z,1024.19
2019-02-20T05:15:56.232Z,1024.18
2019-02-20T05:16:56.805Z,1024.2
2019-02-20T05:17:56.591Z,1024.2
2019-02-20T05:18:56.305Z,1024.19
2019-02-20T05:19:56.378Z,1024.21
2019-02-20T05:20:56.674Z,1024.24
2019-02-20T05:21:56.186Z,1024.28
2019-02-20T05:22:56.521Z,1024.28
2019-02-20T05:23:56.927Z,1024.26
2019-02-20T05:24:56.330Z,1024.29
2019-02-20T05:25:56.256Z,1024.33
2019-02-20T05:26:56.376Z,1024.32
2019-02-20T05:27:57.211Z,1024.37
2019-02-20T05:28:56.307Z,1024.37
2019-02-20T05:29:56.449Z,1024.38
2019-02-20T05:30:56.249Z,1024.41
2019-02-20T05:31:56.271Z,1024.43
2019-02-20T05:32:56.338Z,1024.43
2019-02-20T05:33:56.590Z,1024.48
2019-02-20T05:34:56.999Z,1024.47
2019-02-20T05:35:56.159Z,1024.46
2019-02-20T05:36:56.239Z,1024.47
2019-02-20T05:37:56.397Z,1024.47
2019-02-20T05:38:56.341Z,1024.42
2019-02-20T05:39:56.307Z,1024.44
2019-02-20T05:40:56.202Z,1024.49
2019-02-20T05:41:56.730Z,1024.49
2019-02-20T05:42:56.267Z,1024.45
2019-02-20T05:43:56.650Z,1024.5
2019-02-20T05:44:56.449Z,1024.54
2019-02-20T05:45:57.109Z,1024.48
2019-02-20T05:46:56.245Z,1024.5
2019-02-20T05:47:56.343Z,1024.55
2019-02-20T05:48:57.603Z,1024.56
2019-02-20T05:49:58.031Z,1024.57
2019-02-20T05:50:56.257Z,1024.56
2019-02-20T05:51:56.869Z,1024.58
2019-02-20T05:52:56.186Z,1024.6
2019-02-20T05:53:56.279Z,1024.57
2019-02-20T05:54:56.407Z,1024.64
2019-02-20T05:55:56.177Z,1024.62
2019-02-20T05:56:56.331Z,1024.62
2019-02-20T05:57:56.229Z,1024.63
2019-02-20T05:58:56.638Z,1024.63
2019-02-20T05:59:56.372Z,1024.65
2019-02-20T06:00:56.185Z,1024.66
2019-02-20T06:01:56.217Z,1024.67
2019-02-20T06:02:58.022Z,1024.66
2019-02-20T06:03:56.364Z,1024.69
2019-02-20T06:04:56.259Z,1024.69
2019-02-20T06:05:58.013Z,1024.69
2019-02-20T06:06:56.151Z,1024.68
2019-02-20T06:07:57.154Z,1024.71
2019-02-20T06:08:56.916Z,1024.69
2019-02-20T06:09:56.345Z,1024.71
2019-02-20T06:10:56.259Z,1024.74
2019-02-20T06:11:56.431Z,1024.74
2019-02-20T06:12:56.463Z,1024.77
2019-02-20T06:13:56.279Z,1024.76
2019-02-20T06:14:56.182Z,1024.78
2019-02-20T06:15:56.451Z,1024.78
2019-02-20T06:16:57.969Z,1024.74
2019-02-20T06:17:56.246Z,1024.72
2019-02-20T06:18:56.115Z,1024.73
2019-02-20T06:19:57.102Z,1024.77
2019-02-20T06:20:56.483Z,1024.77
2019-02-20T06:21:56.232Z,1024.81
2019-02-20T06:22:56.516Z,1024.84
2019-02-20T06:23:56.232Z,1024.86
2019-02-20T06:24:56.264Z,1024.89
2019-02-20T06:25:56.253Z,1024.88
2019-02-20T06:26:57.966Z,1024.87
2019-02-20T06:27:56.551Z,1024.93
2019-02-20T06:28:56.693Z,1024.88
2019-02-20T06:29:56.742Z,1024.91
2019-02-20T06:30:57.111Z,1024.92
2019-02-20T06:31:56.146Z,1024.9
2019-02-20T06:32:56.314Z,1024.89
2019-02-20T06:33:56.329Z,1024.89
2019-02-20T06:34:56.263Z,1024.9
2019-02-20T06:35:56.198Z,1024.9
2019-02-20T06:36:56.388Z,1024.92
2019-02-20T06:37:56.098Z,1024.88
2019-02-20T06:38:56.500Z,1024.93
2019-02-20T06:39:57.959Z,1024.92
2019-02-20T06:40:56.763Z,1024.88
2019-02-20T06:41:56.294Z,1024.92
2019-02-20T06:42:56.627Z,1024.94
2019-02-20T06:43:56.551Z,1024.94
2019-02-20T06:44:56.138Z,1024.93
2019-02-20T06:45:56.336Z,1024.96
2019-02-20T06:46:56.296Z,1024.94
2019-02-20T06:47:56.658Z,1024.94
2019-02-20T06:48:56.880Z,1024.93
2019-02-20T06:49:56.230Z,1024.91
2019-02-20T06:50:56.125Z,1024.94
2019-02-20T06:51:57.141Z,1024.94
2019-02-20T06:52:57.310Z,1024.98
2019-02-20T06:53:56.117Z,1025
2019-02-20T06:54:57.198Z,1025.04
2019-02-20T06:55:56.326Z,1025.06
2019-02-20T06:56:56.416Z,1025.05
2019-02-20T06:57:56.985Z,1025.07
2019-02-20T06:58:56.148Z,1025.04
2019-02-20T06:59:56.996Z,1025.08
2019-02-20T07:00:56.135Z,1025.08
2019-02-20T07:01:56.551Z,1025.11
2019-02-20T07:02:56.100Z,1025.13
2019-02-20T07:03:56.352Z,1025.13
2019-02-20T07:04:56.130Z,1025.14
2019-02-20T07:05:56.362Z,1025.14
2019-02-20T07:06:56.081Z,1025.18
2019-02-20T07:07:57.933Z,1025.14
2019-02-20T07:08:56.598Z,1025.13
2019-02-20T07:09:56.301Z,1025.18
2019-02-20T07:10:57.803Z,1025.15
2019-02-20T07:11:56.085Z,1025.17
2019-02-20T07:12:56.101Z,1025.18
2019-02-20T07:13:56.904Z,1025.14
2019-02-20T07:14:56.859Z,1025.14
2019-02-20T07:15:56.807Z,1025.15
2019-02-20T07:16:56.188Z,1025.14
2019-02-20T07:17:56.092Z,1025.18
2019-02-20T07:18:57.933Z,1025.17
2019-02-20T07:19:56.073Z,1025.19
2019-02-20T07:20:56.116Z,1025.19
2019-02-20T07:21:56.373Z,1025.22
2019-02-20T07:22:56.686Z,1025.21
2019-02-20T07:23:56.167Z,1025.23
2019-02-20T07:25:03.716Z,1025.24
2019-02-20T07:25:57.305Z,1025.23
2019-02-20T07:26:56.298Z,1025.21
2019-02-20T07:27:56.400Z,1025.21
2019-02-20T07:28:56.310Z,1025.22
2019-02-20T07:29:56.017Z,1025.19
2019-02-20T07:30:56.226Z,1025.19
2019-02-20T07:31:56.155Z,1025.18
2019-02-20T07:32:56.058Z,1025.18
2019-02-20T07:33:56.561Z,1025.2
2019-02-20T07:34:56.564Z,1025.18
2019-02-20T07:35:56.891Z,1025.2
2019-02-20T07:36:56.949Z,1025.22
2019-02-20T07:37:56.071Z,1025.22
2019-02-20T07:38:56.306Z,1025.25
2019-02-20T07:39:57.597Z,1025.25
2019-02-20T07:40:56.127Z,1025.29
2019-02-20T07:41:56.113Z,1025.27
2019-02-20T07:42:56.115Z,1025.27
2019-02-20T07:43:56.098Z,1025.27
2019-02-20T07:44:56.002Z,1025.25
2019-02-20T07:45:56.550Z,1025.28
2019-02-20T07:46:56.470Z,1025.22
2019-02-20T07:47:57.054Z,1025.23
2019-02-20T07:48:56.085Z,1025.2
2019-02-20T07:49:56.176Z,1025.22
2019-02-20T07:50:56.107Z,1025.21
2019-02-20T07:51:56.141Z,1025.23
2019-02-20T07:52:56.075Z,1025.24
2019-02-20T07:53:57.868Z,1025.24
2019-02-20T07:54:56.003Z,1025.23
2019-02-20T07:55:56.866Z,1025.25
2019-02-20T07:56:56.403Z,1025.29
2019-02-20T07:57:56.012Z,1025.29
2019-02-20T07:58:56.622Z,1025.3
2019-02-20T07:59:56.017Z,1025.3
2019-02-20T08:00:57.026Z,1025.32
2019-02-20T08:01:56.080Z,1025.32
2019-02-20T08:02:56.119Z,1025.32
2019-02-20T08:03:56.056Z,1025.3
2019-02-20T08:04:56.257Z,1025.32
2019-02-20T08:05:56.030Z,1025.36
2019-02-20T08:06:56.471Z,1025.36
2019-02-20T08:07:56.839Z,1025.43
2019-02-20T08:08:56.024Z,1025.47
2019-02-20T08:09:56.192Z,1025.48
2019-02-20T08:10:56.155Z,1025.5
2019-02-20T08:11:56.312Z,1025.51
2019-02-20T08:12:56.416Z,1025.49
2019-02-20T08:13:55.956Z,1025.51
2019-02-20T08:14:56.518Z,1025.51
2019-02-20T08:15:56.586Z,1025.5
2019-02-20T08:16:56.049Z,1025.55
2019-02-20T08:17:56.245Z,1025.51
2019-02-20T08:18:56.334Z,1025.45
2019-02-20T08:19:56.857Z,1025.52
2019-02-20T08:20:56.626Z,1025.48
2019-02-20T08:21:56.146Z,1025.47
2019-02-20T08:22:55.947Z,1025.47
2019-02-20T08:23:56.291Z,1025.45
2019-02-20T08:24:55.999Z,1025.46
2019-02-20T08:25:55.999Z,1025.47
2019-02-20T08:26:55.970Z,1025.49
2019-02-20T08:27:55.988Z,1025.52
2019-02-20T08:28:55.957Z,1025.54
2019-02-20T08:29:56.129Z,1025.54
2019-02-20T08:30:56.215Z,1025.55
2019-02-20T08:31:56.528Z,1025.55
2019-02-20T08:32:57.257Z,1025.51
2019-02-20T08:33:56.376Z,1025.53
2019-02-20T08:34:55.984Z,1025.59
2019-02-20T08:35:56.344Z,1025.55
2019-02-20T08:36:56.043Z,1025.56
2019-02-20T08:37:56.154Z,1025.57
2019-02-20T08:38:56.258Z,1025.55
2019-02-20T08:39:56.082Z,1025.55
2019-02-20T08:40:55.983Z,1025.61
2019-02-20T08:41:56.395Z,1025.58
2019-02-20T08:42:56.962Z,1025.63
2019-02-20T08:43:56.308Z,1025.62
2019-02-20T08:44:56.539Z,1025.63
2019-02-20T08:45:55.938Z,1025.68
2019-02-20T08:46:56.312Z,1025.65
2019-02-20T08:47:56.051Z,1025.68
2019-02-20T08:48:56.148Z,1025.67
2019-02-20T08:49:56.772Z,1025.66
2019-02-20T08:50:56.078Z,1025.7
2019-02-20T08:51:57.748Z,1025.7
2019-02-20T08:52:56.353Z,1025.71
2019-02-20T08:53:56.271Z,1025.69
2019-02-20T08:54:56.050Z,1025.72
2019-02-20T08:55:56.068Z,1025.73
2019-02-20T08:56:57.737Z,1025.8
2019-02-20T08:57:55.714Z,1025.8
2019-02-20T08:58:55.733Z,1025.86
2019-02-20T08:59:56.098Z,1025.86
2019-02-20T09:00:56.099Z,1025.88
2019-02-20T09:01:55.982Z,1025.89
2019-02-20T09:02:56.123Z,1025.94
2019-02-20T09:03:56.770Z,1025.98
2019-02-20T09:04:56.898Z,1025.96
2019-02-20T09:05:56.235Z,1025.95
2019-02-20T09:06:56.330Z,1025.92
2019-02-20T09:07:56.068Z,1025.94
2019-02-20T09:08:56.153Z,1025.98
2019-02-20T09:09:56.000Z,1025.98
2019-02-20T09:10:56.681Z,1025.96
2019-02-20T09:11:55.877Z,1026
2019-02-20T09:12:56.491Z,1026.01
2019-02-20T09:13:56.086Z,1026.02
2019-02-20T09:14:55.869Z,1025.99
2019-02-20T09:15:56.514Z,1026
2019-02-20T09:16:56.410Z,1026.01
2019-02-20T09:17:55.691Z,1025.99
2019-02-20T09:18:55.910Z,1025.96
2019-02-20T09:19:56.104Z,1025.99
2019-02-20T09:20:56.148Z,1026
2019-02-20T09:21:56.135Z,1026.02
2019-02-20T09:22:56.047Z,1026.03
2019-02-20T09:23:56.360Z,1026.05
2019-02-20T09:24:56.786Z,1026.06
2019-02-20T09:25:57.706Z,1026.07
2019-02-20T09:26:56.874Z,1026.07
2019-02-20T09:27:56.768Z,1026.06
2019-02-20T09:28:57.066Z,1026.12
2019-02-20T09:29:56.007Z,1026.12
2019-02-20T09:30:57.675Z,1026.1
2019-02-20T09:31:56.109Z,1026.1
2019-02-20T09:32:56.017Z,1026.11
2019-02-20T09:33:56.891Z,1026.11
2019-02-20T09:34:56.052Z,1026.13
2019-02-20T09:35:56.033Z,1026.11
2019-02-20T09:36:56.689Z,1026.14
2019-02-20T09:37:56.068Z,1026.12
2019-02-20T09:38:56.046Z,1026.14
2019-02-20T09:39:56.366Z,1026.17
2019-02-20T09:40:56.064Z,1026.12
2019-02-20T09:41:56.076Z,1026.12
2019-02-20T09:42:55.904Z,1026.17
2019-02-20T09:43:55.981Z,1026.18
2019-02-20T09:44:57.662Z,1026.16
2019-02-20T09:45:56.001Z,1026.18
2019-02-20T09:46:56.001Z,1026.18
2019-02-20T09:47:57.682Z,1026.17
2019-02-20T09:48:56.528Z,1026.18
2019-02-20T09:49:56.029Z,1026.16
2019-02-20T09:50:55.961Z,1026.16
2019-02-20T09:51:56.139Z,1026.15
2019-02-20T09:52:56.145Z,1026.15
2019-02-20T09:53:56.152Z,1026.16
2019-02-20T09:54:55.810Z,1026.16
2019-02-20T09:55:55.906Z,1026.17
2019-02-20T09:56:56.065Z,1026.13
2019-02-20T09:57:56.839Z,1026.15
2019-02-20T09:58:56.092Z,1026.17
2019-02-20T09:59:57.647Z,1026.18
2019-02-20T10:00:56.203Z,1026.19
2019-02-20T10:01:56.107Z,1026.2
2019-02-20T10:02:57.310Z,1026.16
2019-02-20T10:03:56.212Z,1026.2
2019-02-20T10:04:57.648Z,1026.17
2019-02-20T10:05:57.645Z,1026.2
2019-02-20T10:06:56.026Z,1026.2
2019-02-20T10:07:55.818Z,1026.21
2019-02-20T10:08:55.965Z,1026.25
2019-02-20T10:09:56.674Z,1026.24
2019-02-20T10:10:55.818Z,1026.23
2019-02-20T10:11:56.068Z,1026.25
2019-02-20T10:12:56.183Z,1026.28
2019-02-20T10:13:56.082Z,1026.26
2019-02-20T10:14:55.980Z,1026.25
2019-02-20T10:15:56.097Z,1026.22
2019-02-20T10:16:56.095Z,1026.26
2019-02-20T10:17:56.104Z,1026.25
2019-02-20T10:18:56.313Z,1026.23
2019-02-20T10:19:56.437Z,1026.24
2019-02-20T10:20:55.758Z,1026.25
2019-02-20T10:21:56.229Z,1026.26
2019-02-20T10:22:55.839Z,1026.22
2019-02-20T10:23:56.244Z,1026.25
2019-02-20T10:24:56.050Z,1026.23
2019-02-20T10:26:01.329Z,1026.24
2019-02-20T10:27:01.118Z,1026.3
2019-02-20T10:27:56.079Z,1026.32
2019-02-20T10:28:55.971Z,1026.28
2019-02-20T10:29:56.320Z,1026.29
2019-02-20T10:30:55.990Z,1026.33
2019-02-20T10:31:56.002Z,1026.3
2019-02-20T10:32:56.305Z,1026.26
2019-02-20T10:33:56.118Z,1026.29
2019-02-20T10:34:55.876Z,1026.29
2019-02-20T10:35:56.016Z,1026.24
2019-02-20T10:36:55.798Z,1026.25
2019-02-20T10:37:56.136Z,1026.27
2019-02-20T10:38:56.043Z,1026.28
2019-02-20T10:39:56.057Z,1026.27
2019-02-20T10:40:56.376Z,1026.24
2019-02-20T10:41:56.085Z,1026.32
2019-02-20T10:42:56.071Z,1026.29
2019-02-20T10:43:55.900Z,1026.31
2019-02-20T10:44:57.572Z,1026.28
2019-02-20T10:45:56.090Z,1026.25
2019-02-20T10:46:56.092Z,1026.24
2019-02-20T10:47:56.008Z,1026.24
2019-02-20T10:48:55.739Z,1026.24
2019-02-20T10:49:56.008Z,1026.26
2019-02-20T10:50:56.555Z,1026.24
2019-02-20T10:51:57.574Z,1026.23
2019-02-20T10:52:55.894Z,1026.22
2019-02-20T10:53:55.948Z,1026.23
2019-02-20T10:54:58.148Z,1026.22
2019-02-20T10:55:56.877Z,1026.23
2019-02-20T10:56:55.953Z,1026.17
2019-02-20T10:57:56.088Z,1026.18
2019-02-20T10:58:56.086Z,1026.21
2019-02-20T10:59:55.707Z,1026.2
2019-02-20T11:00:56.086Z,1026.17
2019-02-20T11:01:55.871Z,1026.17
2019-02-20T11:02:56.099Z,1026.16
2019-02-20T11:03:55.759Z,1026.18
2019-02-20T11:04:56.589Z,1026.14
2019-02-20T11:05:56.018Z,1026.17
2019-02-20T11:06:56.557Z,1026.18
2019-02-20T11:07:56.141Z,1026.17
2019-02-20T11:08:57.551Z,1026.15
2019-02-20T11:09:56.045Z,1026.17
2019-02-20T11:10:55.732Z,1026.2
2019-02-20T11:11:55.737Z,1026.19
2019-02-20T11:12:56.192Z,1026.2
2019-02-20T11:13:56.067Z,1026.22
2019-02-20T11:14:55.980Z,1026.22
2019-02-20T11:15:55.983Z,1026.19
2019-02-20T11:16:56.194Z,1026.17
2019-02-20T11:17:55.745Z,1026.24
2019-02-20T11:18:56.672Z,1026.22
2019-02-20T11:19:55.745Z,1026.17
2019-02-20T11:20:56.017Z,1026.17
2019-02-20T11:21:56.174Z,1026.17
2019-02-20T11:22:57.517Z,1026.14
2019-02-20T11:23:55.927Z,1026.16
2019-02-20T11:24:55.965Z,1026.15
2019-02-20T11:25:55.744Z,1026.13
2019-02-20T11:26:57.176Z,1026.1
2019-02-20T11:27:56.548Z,1026.08
2019-02-20T11:28:55.961Z,1026.05
2019-02-20T11:29:55.971Z,1026.04
2019-02-20T11:30:56.958Z,1025.98
2019-02-20T11:31:56.663Z,1025.97
2019-02-20T11:32:55.860Z,1025.97
2019-02-20T11:33:55.709Z,1025.94
2019-02-20T11:34:56.014Z,1025.94
2019-02-20T11:35:56.011Z,1025.94
2019-02-20T11:36:56.043Z,1025.94
2019-02-20T11:37:56.021Z,1025.93
2019-02-20T11:38:56.240Z,1025.92
2019-02-20T11:39:56.046Z,1025.91
2019-02-20T11:40:56.046Z,1025.92
2019-02-20T11:41:56.063Z,1025.92
2019-02-20T11:42:57.489Z,1025.93
2019-02-20T11:43:56.171Z,1025.94
2019-02-20T11:44:55.658Z,1025.93
2019-02-20T11:45:56.006Z,1025.92
2019-02-20T11:46:55.803Z,1025.86
2019-02-20T11:47:55.646Z,1025.9
2019-02-20T11:48:55.736Z,1025.86
2019-02-20T11:49:56.602Z,1025.84
2019-02-20T11:50:56.724Z,1025.85
2019-02-20T11:51:55.690Z,1025.85
2019-02-20T11:52:55.625Z,1025.88
2019-02-20T11:53:56.032Z,1025.87
2019-02-20T11:54:57.324Z,1025.85
2019-02-20T11:55:56.040Z,1025.85
2019-02-20T11:56:56.057Z,1025.88
2019-02-20T11:58:01.180Z,1025.84
2019-02-20T11:58:57.452Z,1025.85
2019-02-20T11:59:56.480Z,1025.87
2019-02-20T12:00:56.184Z,1025.81
2019-02-20T12:01:55.451Z,1025.82
2019-02-20T12:02:55.893Z,1025.8
2019-02-20T12:03:55.687Z,1025.75
2019-02-20T12:04:56.257Z,1025.76
2019-02-20T12:05:55.579Z,1025.77
2019-02-20T12:06:55.765Z,1025.71
2019-02-20T12:07:55.703Z,1025.69
2019-02-20T12:08:55.790Z,1025.69